Time;durP1;ratioP1;P1;durP2;ratioP2;P2;SDS_P1;SDS_P2;PMS_P1;PMS_P2;Temp;Humidity;BMP_temperature;BMP_pressure;BME280_temperature;BME280_humidity;BME280_pressure;Samples;Min_cycle;Max_cycle;Signal;HPM_P1;HPM_P2
2021/12/05 00:23:39;;;;;;;;;85.33;64.67;;;;;-1.38;100.00;98587.31;6310926;20;2883708;-46
2021/12/05 00:26:15;;;;;;;;;96.67;73.00;;;;;-1.37;100.00;98578.47;6315045;20;3650398;-49
2021/12/05 00:34:32;;;;;;;;;100.00;71.33;;;;;-1.27;100.00;98582.56;6278984;20;3655487;-44
2021/12/05 00:37:49;;;;;;;;;79.33;58.33;;;;;-1.14;100.00;98590.94;6313505;20;2879424;-46
2021/12/05 00:40:36;;;;;;;;;88.67;63.67;;;;;-1.23;100.00;98589.47;6313082;20;3652282;-48
2021/12/05 00:46:21;;;;;;;;;86.00;63.67;;;;;-0.98;100.00;98591.28;6309879;20;3650302;-46
2021/12/05 01:08:03;;;;;;;;;86.00;66.00;;;;;-1.22;100.00;98569.25;6312932;20;3639156;-49
2021/12/05 01:10:52;;;;;;;;;74.00;51.00;;;;;-1.25;100.00;98564.94;6314318;20;2878616;-45
2021/12/05 01:14:10;;;;;;;;;87.00;64.67;;;;;-1.26;100.00;98568.50;6311893;20;3652340;-46
2021/12/05 01:16:18;;;;;;;;;60.50;47.50;;;;;-1.16;100.00;98569.94;6313212;20;2870055;-48
2021/12/05 01:18:48;;;;;;;;;86.33;57.33;;;;;-1.18;100.00;98560.34;6280175;20;2907706;-46
2021/12/05 01:21:22;;;;;;;;;75.33;58.00;;;;;-1.25;100.00;98564.09;6312159;20;2881957;-49
2021/12/05 01:24:42;;;;;;;;;79.00;61.00;;;;;-1.05;100.00;98560.78;6313558;20;2773294;-46
2021/12/05 01:29:59;;;;;;;;;72.00;59.00;;;;;-1.05;100.00;98561.69;6279062;20;2855474;-47
2021/12/05 01:35:25;;;;;;;;;76.67;59.00;;;;;-0.95;100.00;98562.22;6281479;20;2883655;-45
2021/12/05 01:40:45;;;;;;;;;82.33;61.33;;;;;-1.03;100.00;98548.44;6312197;20;3639849;-47
2021/12/05 01:59:42;;;;;;;;;79.33;62.67;;;;;-0.81;100.00;98533.66;6308539;20;2887747;-47
2021/12/05 02:41:39;;;;;;;;;80.67;60.00;;;;;-0.95;100.00;98517.44;6281505;20;3641985;-45
2021/12/05 02:43:42;;;;;;;;;87.33;65.00;;;;;-0.95;100.00;98510.41;6309376;20;3656485;-46
2021/12/05 02:46:15;;;;;;;;;78.67;59.00;;;;;-0.95;100.00;98510.41;6309935;20;2883612;-45
2021/12/05 02:48:45;;;;;;;;;80.00;61.00;;;;;-0.97;100.00;98506.09;6311801;20;2886793;-44
2021/12/05 02:51:27;;;;;;;;;80.33;59.67;;;;;-0.91;100.00;98501.47;6311028;20;2898353;-45
2021/12/05 02:54:12;;;;;;;;;88.00;64.67;;;;;-1.03;100.00;98506.28;6309946;20;3648135;-45
2021/12/05 02:56:45;;;;;;;;;77.00;60.00;;;;;-0.83;100.00;98509.13;6310671;20;2896126;-45
2021/12/05 03:01:58;;;;;;;;;83.00;62.00;;;;;-0.91;100.00;98516.41;6312965;20;3639880;-44
2021/12/05 03:04:32;;;;;;;;;83.33;63.33;;;;;-0.91;100.00;98511.16;6311294;20;2875452;-45
2021/12/05 03:07:06;;;;;;;;;86.33;63.67;;;;;-0.76;100.00;98515.06;6307047;20;3651282;-45
2021/12/05 03:09:39;;;;;;;;;79.50;62.00;;;;;-0.75;100.00;98512.34;6310819;20;2883566;-44
2021/12/05 03:12:16;;;;;;;;;76.00;60.00;;;;;-0.89;100.00;98511.97;6277058;20;2500246;-43
2021/12/05 03:14:49;;;;;;;;;81.33;60.00;;;;;-1.01;100.00;98507.09;6277278;20;3642178;-44
2021/12/05 03:17:19;;;;;;;;;83.00;61.00;;;;;-0.77;100.00;98503.63;6315585;20;3642995;-45
2021/12/05 03:19:48;;;;;;;;;82.00;64.00;;;;;-0.86;100.00;98503.97;6315084;20;3640899;-44
2021/12/05 03:22:18;;;;;;;;;84.00;62.67;;;;;-1.00;100.00;98491.25;6314751;20;2884636;-44
2021/12/05 03:24:48;;;;;;;;;78.33;56.33;;;;;-0.92;100.00;98491.84;6317580;20;2892032;-43
2021/12/05 03:27:18;;;;;;;;;86.67;64.67;;;;;-0.97;100.00;98491.16;6315633;20;2888985;-45
2021/12/05 03:29:48;;;;;;;;;80.33;63.33;;;;;-0.88;100.00;98489.97;6313030;20;2885748;-45
2021/12/05 03:32:18;;;;;;;;;87.00;63.67;;;;;-0.88;100.00;98489.97;6316507;20;3642767;-43
2021/12/05 03:34:48;;;;;;;;;82.67;60.67;;;;;-0.86;100.00;98493.41;6315634;20;2893993;-43
2021/12/05 03:37:18;;;;;;;;;105.67;76.67;;;;;-0.94;100.00;98498.94;6317036;20;3678344;-43
2021/12/05 03:39:48;;;;;;;;;132.00;104.33;;;;;-0.94;100.00;98495.47;6278122;20;3714832;-43
2021/12/05 03:42:18;;;;;;;;;208.25;172.25;;;;;-0.94;100.00;98498.09;6284637;20;3714949;-44
2021/12/05 03:44:49;;;;;;;;;147.00;129.50;;;;;-0.79;100.00;98505.47;6281530;20;4501217;-43
2021/12/05 03:47:19;;;;;;;;;84.67;63.33;;;;;-0.90;100.00;98492.63;6313336;20;2883762;-43
2021/12/05 03:49:49;;;;;;;;;88.00;62.67;;;;;-0.87;100.00;98496.94;6313539;20;3651248;-43
2021/12/05 03:52:18;;;;;;;;;104.33;78.33;;;;;-0.81;100.00;98491.47;6313836;20;3666010;-42
2021/12/05 03:54:49;;;;;;;;;101.33;72.00;;;;;-0.87;100.00;98494.31;6284142;20;3668009;-43
2021/12/05 03:57:19;;;;;;;;;97.67;71.00;;;;;-0.88;100.00;98503.13;6281619;20;3652453;-42
2021/12/05 03:59:48;;;;;;;;;92.67;72.00;;;;;-0.78;100.00;98501.06;6314248;20;3647084;-43
2021/12/05 04:02:18;;;;;;;;;109.00;78.33;;;;;-0.66;100.00;98500.59;6314590;20;3686937;-42
2021/12/05 04:04:50;;;;;;;;;100.67;74.67;;;;;-0.73;100.00;98499.97;6281171;20;3660709;-43
2021/12/05 04:07:19;;;;;;;;;111.33;86.67;;;;;-0.56;100.00;98495.88;6314224;20;3702295;-42
2021/12/05 04:09:50;;;;;;;;;111.33;88.00;;;;;-0.84;100.00;98495.97;6281739;20;3686779;-43
2021/12/05 04:12:20;;;;;;;;;102.33;72.67;;;;;-0.81;100.00;98495.91;6281897;20;3666890;-44
2021/12/05 04:14:54;;;;;;;;;161.00;128.50;;;;;-0.77;100.00;98498.34;6315229;20;3726266;-48
2021/12/05 04:17:24;;;;;;;;;112.00;91.33;;;;;-0.94;100.00;98495.47;6278397;20;3695160;-43
2021/12/05 04:19:54;;;;;;;;;106.50;75.50;;;;;-0.80;100.00;98495.81;6278999;20;3618088;-44
2021/12/05 04:22:24;;;;;;;;;86.33;64.00;;;;;-0.75;100.00;98500.94;6314728;20;2886861;-42
2021/12/05 04:24:55;;;;;;;;;151.50;120.75;;;;;-0.74;100.00;98503.53;6314061;20;4492901;-44
2021/12/05 04:27:26;;;;;;;;;256.00;191.25;;;;;-0.70;100.00;98499.88;6279646;20;3707618;-43
2021/12/05 04:29:56;;;;;;;;;124.33;98.33;;;;;-0.69;100.00;98506.84;6279660;20;3706491;-43
2021/12/05 04:32:26;;;;;;;;;112.67;80.00;;;;;-0.70;100.00;98510.41;6282610;20;3687718;-44
2021/12/05 04:34:57;;;;;;;;;287.00;226.50;;;;;-0.78;100.00;98507.19;6281314;20;3713859;-42
2021/12/05 04:37:27;;;;;;;;;254.33;197.67;;;;;-0.69;100.00;98512.13;6279149;20;3705448;-42
2021/12/05 04:39:57;;;;;;;;;88.33;66.00;;;;;-0.68;100.00;98505.94;6280512;20;3655449;-42
2021/12/05 04:42:27;;;;;;;;;260.75;199.50;;;;;-0.73;100.00;98507.88;6316844;20;4466886;-43
2021/12/05 04:44:57;;;;;;;;;277.25;204.00;;;;;-0.65;100.00;98506.75;6317331;20;4470098;-43
2021/12/05 04:47:26;;;;;;;;;87.00;66.00;;;;;-0.63;100.00;98512.81;6313086;20;3648186;-42
2021/12/05 04:49:57;;;;;;;;;123.75;104.50;;;;;-0.65;100.00;98517.31;6312382;20;3698120;-43
2021/12/05 04:52:28;;;;;;;;;177.50;142.25;;;;;-0.56;100.00;98514.34;6279510;20;3703328;-42
2021/12/05 04:54:57;;;;;;;;;92.50;71.00;;;;;-0.65;100.00;98514.66;6280804;20;2888779;-43
2021/12/05 04:57:27;;;;;;;;;91.33;66.33;;;;;-0.60;100.00;98520.66;6282415;20;3648120;-41
2021/12/05 04:59:56;;;;;;;;;78.00;61.50;;;;;-0.57;100.00;98515.25;6311563;20;2874187;-41
2021/12/05 05:02:26;;;;;;;;;72.00;54.67;;;;;-0.57;100.00;98526.66;6281832;20;2872253;-42
2021/12/05 05:04:56;;;;;;;;;86.00;65.67;;;;;-0.64;100.00;98530.41;6314500;20;3654384;-42
2021/12/05 05:07:28;;;;;;;;;81.67;62.67;;;;;-0.65;100.00;98522.56;6313776;20;3625230;-41
2021/12/05 05:10:09;;;;;;;;;88.00;66.33;;;;;-0.53;100.00;98525.63;6311754;20;3659593;-42
2021/12/05 05:12:39;;;;;;;;;89.00;67.00;;;;;-0.69;100.00;98522.66;6313406;20;2886839;-41
2021/12/05 05:15:12;;;;;;;;;81.67;55.00;;;;;-0.49;100.00;98534.28;6311506;20;2891074;-41
2021/12/05 05:17:41;;;;;;;;;77.50;58.50;;;;;-0.54;100.00;98525.69;6311493;20;2886941;-42
2021/12/05 05:20:24;;;;;;;;;76.67;58.67;;;;;-0.54;100.00;98525.69;6281675;20;2876485;-41
2021/12/05 05:28:52;;;;;;;;;90.67;64.67;;;;;-0.54;100.00;98516.00;6312172;20;3647251;-42
2021/12/05 05:40:01;;;;;;;;;92.33;65.67;;;;;-0.58;100.00;98501.22;6310418;20;3664904;-41
2021/12/05 05:50:33;;;;;;;;;82.33;64.33;;;;;-0.48;100.00;98507.00;6313418;20;2872149;-41
2021/12/05 05:53:03;;;;;;;;;87.33;62.00;;;;;-0.49;100.00;98505.28;6311705;20;3648165;-41
2021/12/05 05:55:35;;;;;;;;;90.00;66.00;;;;;-0.46;100.00;98515.72;6312824;20;3654972;-41
2021/12/05 05:58:10;;;;;;;;;80.00;62.00;;;;;-0.49;100.00;98513.22;6312302;20;2876444;-42
2021/12/05 06:03:32;;;;;;;;;88.00;66.33;;;;;-0.44;100.00;98511.25;6313027;20;3651287;-41
2021/12/05 06:06:10;;;;;;;;;92.67;70.33;;;;;-0.32;100.00;98504.66;6311085;20;3647337;-41
2021/12/05 06:08:44;;;;;;;;;471.67;383.33;;;;;-0.35;100.00;98510.91;6310859;20;3762717;-41
2021/12/05 06:11:17;;;;;;;;;93.33;66.67;;;;;-0.39;100.00;98514.59;6276528;20;3664868;-40
2021/12/05 06:13:47;;;;;;;;;101.67;72.00;;;;;-0.29;100.00;98509.81;6312360;20;3686718;-40
2021/12/05 06:16:17;;;;;;;;;89.00;68.67;;;;;-0.47;100.00;98521.94;6278681;20;3651275;-40
2021/12/05 06:18:49;;;;;;;;;114.29;90.71;;;;;-0.40;100.00;98533.94;6318910;20;2541986;-41
2021/12/05 06:21:19;;;;;;;;;104.67;76.67;;;;;-0.36;100.00;98524.19;6309837;20;3688763;-41
2021/12/05 06:23:49;;;;;;;;;89.33;66.33;;;;;-0.37;100.00;98532.97;6279739;20;2894242;-42
2021/12/05 06:26:21;;;;;;;;;95.33;71.33;;;;;-0.47;100.00;98533.31;6311141;20;3655536;-42
2021/12/05 06:37:44;;;;;;;;;83.00;63.33;;;;;-0.34;100.00;98536.38;6272739;20;3648267;-41
2021/12/05 06:48:04;;;;;;;;;84.33;62.00;;;;;-0.17;100.00;98537.56;6305979;20;3650276;-41
2021/12/05 06:50:34;;;;;;;;;98.00;73.33;;;;;-0.15;100.00;98543.63;6311523;20;3655479;-41
2021/12/05 06:53:06;;;;;;;;;105.67;80.67;;;;;-0.03;100.00;98537.88;6283887;20;3683606;-41
2021/12/05 06:55:37;;;;;;;;;146.00;121.75;;;;;-0.12;100.00;98538.25;6281390;20;4488776;-41
2021/12/05 06:58:12;;;;;;;;;116.67;94.67;;;;;-0.06;100.00;98540.63;6282072;20;3693012;-40
2021/12/05 07:00:41;;;;;;;;;102.67;75.67;;;;;-0.04;100.00;98534.38;6285094;20;3684595;-40
2021/12/05 07:03:11;;;;;;;;;101.67;73.33;;;;;-0.09;100.00;98538.13;6283519;20;3668957;-41
2021/12/05 07:05:51;;;;;;;;;92.33;69.33;;;;;-0.13;100.00;98547.06;6314603;20;3642010;-41
2021/12/05 07:08:25;;;;;;;;;93.67;66.33;;;;;-0.09;100.00;98548.69;6315780;20;3667326;-41
2021/12/05 07:11:12;;;;;;;;;95.00;68.67;;;;;-0.15;100.00;98543.63;6312453;20;3659613;-41
2021/12/05 07:16:48;;;;;;;;;90.33;69.33;;;;;-0.05;100.00;98563.50;6313261;20;2897251;-41
2021/12/05 07:22:04;;;;;;;;;99.00;69.00;;;;;-0.02;100.00;98568.66;6282290;20;3653340;-41
2021/12/05 07:24:42;;;;;;;;;97.67;70.00;;;;;-0.04;100.00;98565.19;6314357;20;3638788;-41
2021/12/05 07:43:58;;;;;;;;;92.00;68.33;;;;;0.29;100.00;98554.28;6315349;20;3649331;-43
2021/12/05 07:46:28;;;;;;;;;92.33;65.67;;;;;0.06;100.00;98550.75;6313479;20;3652423;-42
2021/12/05 07:48:58;;;;;;;;;92.67;68.00;;;;;0.62;100.00;98547.69;6313189;20;3654526;-43
2021/12/05 07:51:29;;;;;;;;;89.33;66.67;;;;;0.22;100.00;98545.75;6313523;20;3649196;-42
2021/12/05 07:54:10;;;;;;;;;92.67;69.67;;;;;0.06;100.00;98545.47;6313637;20;3653473;-42
2021/12/05 07:56:47;;;;;;;;;80.50;62.00;;;;;0.12;100.00;98539.97;6313437;20;2882728;-42
2021/12/05 08:16:17;;;;;;;;;98.33;74.00;;;;;0.08;100.00;98577.94;6313151;20;3645130;-42
2021/12/05 08:18:47;;;;;;;;;234.00;167.00;;;;;0.13;100.00;98576.00;6310964;20;3716106;-42
2021/12/05 08:21:15;;;;;;;;;628.50;473.50;;;;;0.20;100.00;98576.63;6235658;20;3776013;-43
2021/12/05 08:23:46;;;;;;;;;263.67;197.33;;;;;0.24;100.00;98578.25;6278827;20;3707960;-43
2021/12/05 08:26:26;;;;;;;;;135.33;127.33;;;;;0.10;100.00;98575.25;6280922;20;3708765;-43
2021/12/05 08:32:23;;;;;;;;;111.00;94.00;;;;;0.48;100.00;98587.00;6280591;20;3689873;-42
2021/12/05 08:39:59;;;;;;;;;104.00;73.67;;;;;0.25;100.00;98581.72;6279894;20;3692050;-43
2021/12/05 09:24:42;;;;;;;;;104.33;77.33;;;;;0.61;100.00;98569.75;6310037;20;3670031;-42
2021/12/05 09:30:39;;;;;;;;;111.67;97.33;;;;;0.89;100.00;98555.44;6275795;20;3697973;-42
2021/12/05 09:39:42;;;;;;;;;91.00;71.33;;;;;0.80;100.00;98534.69;6307226;20;3638861;-43
2021/12/05 10:02:22;;;;;;;;;102.67;68.33;;;;;1.30;100.00;98516.72;6311525;20;3673340;-44
2021/12/05 10:08:42;;;;;;;;;88.33;63.67;;;;;0.61;100.00;98535.44;6309257;20;3648119;-43
2021/12/05 10:16:19;;;;;;;;;223.75;163.25;;;;;1.04;100.00;98532.81;6278529;20;4490838;-44
2021/12/05 10:38:50;;;;;;;;;109.33;83.33;;;;;0.75;100.00;98520.81;6283243;20;3698201;-44
2021/12/05 10:41:48;;;;;;;;;91.00;67.67;;;;;0.71;100.00;98522.72;6282581;20;3644004;-45
2021/12/05 10:44:18;;;;;;;;;110.33;80.67;;;;;0.71;100.00;98511.25;6314800;20;3695060;-46
2021/12/05 10:46:49;;;;;;;;;113.67;93.33;;;;;0.58;100.00;98522.34;6285366;20;3697116;-46
2021/12/05 10:49:20;;;;;;;;;126.67;100.33;;;;;0.74;100.00;98521.69;6284631;20;3706523;-45
2021/12/05 10:51:57;;;;;;;;;108.67;78.67;;;;;0.92;100.00;98517.44;6284247;20;3687737;-45
2021/12/05 10:54:29;;;;;;;;;146.67;108.67;;;;;0.74;100.00;98511.13;6282945;20;3716077;-47
2021/12/05 10:57:03;;;;;;;;;106.33;75.00;;;;;0.99;100.00;98503.06;6281392;20;3697219;-44
2021/12/05 10:59:40;;;;;;;;;103.33;73.33;;;;;0.93;100.00;98516.56;6284113;20;3684579;-45
2021/12/05 11:02:15;;;;;;;;;118.33;85.00;;;;;0.78;100.00;98520.66;6284716;20;3674177;-45
2021/12/05 11:04:51;;;;;;;;;106.00;74.67;;;;;0.87;100.00;98525.59;6284132;20;3697199;-47
2021/12/05 11:07:23;;;;;;;;;156.75;116.25;;;;;0.84;100.00;98521.28;6285108;20;3714875;-46
2021/12/05 11:09:59;;;;;;;;;163.00;124.50;;;;;0.85;100.00;98517.72;6273808;20;1951691;-44
2021/12/05 11:12:35;;;;;;;;;104.33;73.67;;;;;0.38;100.00;98506.44;6280990;20;3688775;-44
2021/12/05 11:15:15;;;;;;;;;272.25;220.25;;;;;0.88;100.00;98498.25;6285312;20;4493070;-46
2021/12/05 11:17:49;;;;;;;;;164.25;121.25;;;;;0.71;100.00;98492.78;6314482;20;3714002;-44
2021/12/05 11:20:30;;;;;;;;;110.67;82.00;;;;;0.70;100.00;98494.56;6279507;20;3684926;-45
2021/12/05 11:23:00;;;;;;;;;106.00;83.33;;;;;0.68;100.00;98493.75;6280146;20;3685763;-44
2021/12/05 11:25:35;;;;;;;;;109.50;86.75;;;;;1.04;100.00;98501.09;6277720;20;4453345;-45
2021/12/05 11:28:08;;;;;;;;;153.00;119.50;;;;;0.91;100.00;98513.97;6281918;20;3718131;-47
2021/12/05 11:30:43;;;;;;;;;165.50;129.00;;;;;0.85;100.00;98512.44;6310999;20;4496050;-44
2021/12/05 11:33:19;;;;;;;;;209.33;153.67;;;;;0.56;100.00;98499.56;6313672;20;3714937;-45
2021/12/05 11:36:03;;;;;;;;;105.67;91.67;;;;;0.60;100.00;98499.34;6281579;20;3659727;-45
2021/12/05 11:38:35;;;;;;;;;129.33;97.00;;;;;0.21;100.00;98497.38;6313318;20;3692272;-45
2021/12/05 11:41:14;;;;;;;;;677.00;496.25;;;;;0.92;100.00;98501.59;6236282;20;4524165;-42
2021/12/05 11:43:52;;;;;;;;;133.50;99.00;;;;;0.56;100.00;98499.56;6280308;20;4473320;-42
2021/12/05 11:46:35;;;;;;;;;105.67;80.33;;;;;0.64;100.00;98498.31;6280122;20;3685665;-41
2021/12/05 11:49:21;;;;;;;;;116.00;88.00;;;;;0.79;100.00;98491.56;6279721;20;4450380;-41
2021/12/05 11:51:58;;;;;;;;;116.33;85.33;;;;;0.60;100.00;98501.13;6281230;20;3701267;-42
2021/12/05 11:54:40;;;;;;;;;103.67;72.33;;;;;0.73;100.00;98489.16;6281131;20;3681492;-44
2021/12/05 11:57:27;;;;;;;;;152.67;110.33;;;;;0.53;100.00;98489.13;6281547;20;3714976;-42
2021/12/05 12:00:14;;;;;;;;;106.67;71.33;;;;;0.74;100.00;98492.66;6278819;20;3677356;-42
2021/12/05 12:02:48;;;;;;;;;111.00;81.67;;;;;0.51;100.00;98485.69;6283875;20;3690832;-41
2021/12/05 12:05:31;;;;;;;;;106.67;75.33;;;;;0.80;100.00;98484.50;6282722;20;3688974;-42
2021/12/05 12:08:09;;;;;;;;;128.25;98.00;;;;;0.52;100.00;98480.31;6281066;20;3699420;-42
2021/12/05 12:10:57;;;;;;;;;147.75;100.75;;;;;0.51;100.00;98477.75;6280643;20;3717006;-40
2021/12/05 12:13:34;;;;;;;;;111.00;74.33;;;;;0.50;100.00;98476.00;6277618;20;3690057;-41
2021/12/05 12:16:08;;;;;;;;;114.67;85.67;;;;;0.55;100.00;98472.25;6280699;20;3674185;-41
2021/12/05 12:18:45;;;;;;;;;102.33;74.33;;;;;0.68;100.00;98477.91;6280110;20;3682618;-42
2021/12/05 12:21:38;;;;;;;;;165.25;123.50;;;;;0.22;100.00;98470.06;6281022;20;4481496;-42
2021/12/05 12:24:10;;;;;;;;;157.33;110.67;;;;;0.52;100.00;98485.59;6282311;20;3715274;-40
2021/12/05 12:26:40;;;;;;;;;194.33;151.67;;;;;0.20;100.00;98469.25;6283339;20;3712712;-41
2021/12/05 12:29:13;;;;;;;;;166.75;123.25;;;;;0.63;100.00;98480.75;6276515;20;3695428;-42
2021/12/05 12:31:48;;;;;;;;;112.50;75.75;;;;;0.62;100.00;98476.38;6278171;20;3700305;-42
2021/12/05 12:34:22;;;;;;;;;156.33;114.67;;;;;0.34;100.00;98476.66;6275078;20;3711724;-41
2021/12/05 12:37:02;;;;;;;;;137.75;110.75;;;;;0.46;100.00;98479.72;6282867;20;4480404;-41
2021/12/05 12:39:44;;;;;;;;;185.25;158.50;;;;;0.73;100.00;98485.66;6281279;20;4481591;-43
2021/12/05 12:42:28;;;;;;;;;128.67;91.33;;;;;0.60;100.00;98502.00;6278058;20;3691933;-42
2021/12/05 12:45:09;;;;;;;;;152.50;113.00;;;;;0.51;100.00;98489.16;6283230;20;4491946;-43
2021/12/05 12:48:12;;;;;;;;;117.33;85.33;;;;;0.39;100.00;98492.28;6280801;20;3692003;-43
2021/12/05 12:50:51;;;;;;;;;162.75;105.75;;;;;0.55;100.00;98492.53;6281927;20;4477264;-43
2021/12/05 12:53:30;;;;;;;;;142.00;100.50;;;;;0.52;100.00;98485.59;6307670;20;1960982;-43
2021/12/05 12:56:17;;;;;;;;;134.33;96.67;;;;;0.93;100.00;98477.78;6279866;20;3689789;-43
2021/12/05 12:58:55;;;;;;;;;111.67;81.67;;;;;0.35;100.00;98474.88;6280482;20;3699252;-43
2021/12/05 13:10:42;;;;;;;;;107.33;70.67;;;;;0.56;100.00;98474.00;6308756;20;3670031;-44
2021/12/05 13:13:26;;;;;;;;;141.75;95.00;;;;;0.81;100.00;98472.97;6312473;20;3698740;-43
2021/12/05 13:16:22;;;;;;;;;119.00;82.67;;;;;0.60;100.00;98480.84;6313880;20;3699803;-43
2021/12/05 13:19:26;;;;;;;;;154.75;115.25;;;;;0.65;100.00;98484.19;6279943;20;3702373;-41
2021/12/05 13:22:07;;;;;;;;;149.50;106.50;;;;;0.80;100.00;98471.28;6280335;20;4476302;-42
2021/12/05 13:24:44;;;;;;;;;135.75;93.25;;;;;0.35;100.00;98464.31;6313807;20;4464886;-43
2021/12/05 13:27:35;;;;;;;;;113.50;79.25;;;;;0.65;100.00;98463.03;6313901;20;3703376;-42
2021/12/05 13:30:06;;;;;;;;;107.33;86.00;;;;;0.67;100.00;98459.50;6276485;20;3680457;-41
2021/12/05 13:32:37;;;;;;;;;114.00;78.75;;;;;0.30;100.00;98459.22;6280843;20;3705579;-41
2021/12/05 13:35:11;;;;;;;;;139.57;90.29;;;;;0.55;100.00;98451.13;6291460;20;2533614;-41
2021/12/05 13:37:49;;;;;;;;;108.33;81.00;;;;;0.57;100.00;98446.66;6277321;20;3689193;-40
2021/12/05 13:40:26;;;;;;;;;115.67;88.00;;;;;0.22;100.00;98442.81;6279064;20;3675273;-42
2021/12/05 13:43:06;;;;;;;;;116.00;73.67;;;;;0.15;100.00;98442.19;6281753;20;3690879;-41
2021/12/05 13:45:43;;;;;;;;;142.00;102.67;;;;;0.53;100.00;98437.16;6280791;20;3705444;-40
2021/12/05 13:48:25;;;;;;;;;141.67;95.67;;;;;0.39;100.00;98428.94;6277971;20;3696074;-40
2021/12/05 13:51:05;;;;;;;;;119.33;82.67;;;;;0.38;100.00;98427.22;6280079;20;3687809;-41
2021/12/05 13:53:59;;;;;;;;;117.67;95.33;;;;;0.37;100.00;98433.41;6280595;20;3691902;-41
2021/12/05 13:56:31;;;;;;;;;148.50;109.00;;;;;0.27;100.00;98434.72;6280046;20;3728475;-40
2021/12/05 13:59:06;;;;;;;;;134.25;95.50;;;;;0.10;100.00;98427.47;6279133;20;4475319;-41
2021/12/05 14:01:47;;;;;;;;;155.25;118.25;;;;;0.25;100.00;98431.28;6279327;20;4481576;-41
2021/12/05 14:04:19;;;;;;;;;115.33;74.67;;;;;0.25;100.00;98426.00;6311968;20;3691901;-42
2021/12/05 14:07:04;;;;;;;;;107.00;80.00;;;;;0.56;100.00;98425.63;6281493;20;3688784;-42
2021/12/05 14:09:47;;;;;;;;;135.00;103.00;;;;;0.38;100.00;98437.78;6278407;20;4465939;-40
2021/12/05 14:12:31;;;;;;;;;133.25;104.50;;;;;0.52;100.00;98451.28;6311062;20;4487752;-41
2021/12/05 14:15:07;;;;;;;;;109.00;78.33;;;;;0.74;100.00;98447.75;6279408;20;3692957;-40
2021/12/05 14:17:42;;;;;;;;;127.33;84.33;;;;;0.46;100.00;98443.59;6280693;20;3691918;-40
2021/12/05 14:20:20;;;;;;;;;133.00;102.75;;;;;0.69;100.00;98441.81;6277027;20;4481436;-40
2021/12/05 14:22:51;;;;;;;;;105.67;84.00;;;;;0.51;100.00;98451.34;6311544;20;3684735;-40
2021/12/05 14:25:25;;;;;;;;;117.00;87.67;;;;;0.33;100.00;98448.53;6277773;20;3685621;-40
2021/12/05 14:28:03;;;;;;;;;122.00;90.00;;;;;0.57;100.00;98451.94;6279917;20;3697245;-41
2021/12/05 14:30:35;;;;;;;;;120.33;93.00;;;;;0.38;100.00;98443.91;6273858;20;3689807;-40
2021/12/05 14:33:05;;;;;;;;;135.00;92.67;;;;;0.55;100.00;98445.84;6280637;20;3689304;-42
2021/12/05 14:35:40;;;;;;;;;106.33;74.00;;;;;0.18;100.00;98455.25;6275724;20;3682649;-40
2021/12/05 14:38:10;;;;;;;;;108.33;78.00;;;;;0.32;100.00;98459.16;6275954;20;3686711;-40
2021/12/05 14:40:43;;;;;;;;;105.00;73.25;;;;;0.19;100.00;98453.50;6278221;20;3697112;-42
2021/12/05 14:43:13;;;;;;;;;112.67;87.00;;;;;0.69;100.00;98457.66;6309184;20;3700335;-41
2021/12/05 14:45:43;;;;;;;;;118.00;84.67;;;;;0.61;100.00;98461.47;6275969;20;3680426;-40
2021/12/05 14:48:15;;;;;;;;;98.67;70.67;;;;;0.56;100.00;98457.31;6278797;20;3662912;-40
2021/12/05 14:50:53;;;;;;;;;127.33;95.67;;;;;0.21;100.00;98449.88;6278984;20;3688796;-41
2021/12/05 14:53:24;;;;;;;;;106.00;80.67;;;;;0.49;100.00;98459.31;6276496;20;3701360;-41
2021/12/05 14:55:58;;;;;;;;;139.00;92.33;;;;;0.42;100.00;98449.91;6276794;20;3688860;-43
2021/12/05 14:58:30;;;;;;;;;114.33;85.67;;;;;0.25;100.00;98455.03;6275640;20;3663901;-40
2021/12/05 15:01:02;;;;;;;;;114.00;88.00;;;;;0.68;100.00;98456.78;6277664;20;3698191;-40
2021/12/05 15:03:33;;;;;;;;;114.67;83.67;;;;;0.31;100.00;98465.34;6276898;20;3700267;-41
2021/12/05 15:06:07;;;;;;;;;96.67;66.00;;;;;0.46;100.00;98467.38;6277337;20;3651256;-41
2021/12/05 15:08:38;;;;;;;;;111.33;90.33;;;;;0.64;100.00;98474.53;6306855;20;3678428;-42
2021/12/05 15:11:08;;;;;;;;;106.00;74.33;;;;;0.35;100.00;98469.59;6277365;20;3672140;-40
2021/12/05 15:13:38;;;;;;;;;95.33;68.00;;;;;0.52;100.00;98467.13;6280814;20;3637929;-41
2021/12/05 15:16:08;;;;;;;;;116.00;90.67;;;;;0.66;100.00;98469.22;6313181;20;3695066;-41
2021/12/05 15:18:39;;;;;;;;;108.67;78.33;;;;;0.20;100.00;98471.03;6280227;20;3684640;-41
2021/12/05 15:21:09;;;;;;;;;106.33;80.67;;;;;0.87;100.00;98478.03;6282912;20;3693960;-40
2021/12/05 15:23:43;;;;;;;;;101.00;72.67;;;;;0.92;100.00;98486.59;6281350;20;3681507;-41
2021/12/05 15:26:14;;;;;;;;;113.33;86.33;;;;;0.42;100.00;98487.78;6280986;20;3694990;-40
2021/12/05 15:28:44;;;;;;;;;86.33;60.33;;;;;0.65;100.00;98500.03;6283458;20;3644138;-41
2021/12/05 15:31:14;;;;;;;;;109.67;81.00;;;;;0.41;100.00;98487.81;6312539;20;3697119;-40
2021/12/05 15:33:46;;;;;;;;;89.00;69.33;;;;;0.70;100.00;98491.91;6281265;20;3630551;-40
2021/12/05 15:36:29;;;;;;;;;102.00;67.00;;;;;0.61;100.00;98490.53;6311507;20;3679413;-43
2021/12/05 15:39:22;;;;;;;;;103.33;70.33;;;;;0.96;100.00;98490.84;6278495;20;3678469;-42
2021/12/05 15:41:55;;;;;;;;;106.50;80.50;;;;;1.06;100.00;98492.19;6309434;20;1940903;-41
2021/12/05 15:44:36;;;;;;;;;118.67;94.33;;;;;0.66;100.00;98487.69;6280114;20;3689915;-41
2021/12/05 15:47:31;;;;;;;;;118.00;86.00;;;;;0.58;100.00;98488.00;6275443;20;1950298;-41
2021/12/05 15:50:23;;;;;;;;;128.00;96.00;;;;;0.78;100.00;98494.25;6275276;20;3694594;-42
2021/12/05 15:53:10;;;;;;;;;96.67;70.33;;;;;0.51;100.00;98494.44;6281659;20;3663756;-41
2021/12/05 15:56:11;;;;;;;;;102.33;74.00;;;;;0.38;100.00;98488.78;6310983;20;3688807;-41
2021/12/05 15:59:02;;;;;;;;;95.67;65.33;;;;;0.60;100.00;98502.00;6277568;20;3655455;-41
2021/12/05 16:01:35;;;;;;;;;88.00;65.67;;;;;0.86;100.00;98508.84;6313384;20;3647098;-45
2021/12/05 16:04:18;;;;;;;;;84.33;65.00;;;;;0.59;100.00;98504.72;6310833;20;3632722;-40
2021/12/05 16:06:49;;;;;;;;;97.00;69.00;;;;;0.95;100.00;98496.19;6309782;20;3652354;-41
2021/12/05 16:09:24;;;;;;;;;99.00;73.00;;;;;0.39;100.00;98490.50;6309888;20;3676390;-40
2021/12/05 16:12:19;;;;;;;;;103.33;67.33;;;;;0.35;100.00;98488.06;6278280;20;3671212;-41
2021/12/05 16:14:56;;;;;;;;;97.00;67.67;;;;;0.52;100.00;98490.88;6279613;20;3646241;-41
2021/12/05 16:17:29;;;;;;;;;92.33;66.00;;;;;0.42;100.00;98481.59;6310343;20;3635655;-41
2021/12/05 16:20:22;;;;;;;;;85.00;69.00;;;;;0.42;100.00;98471.03;6301188;20;2874258;-41
2021/12/05 16:23:30;;;;;;;;;87.00;62.67;;;;;0.41;100.00;98461.41;6280850;20;3644995;-41
2021/12/05 16:26:24;;;;;;;;;109.67;75.00;;;;;0.33;100.00;98447.66;6310267;20;3681492;-42
2021/12/05 16:29:09;;;;;;;;;105.67;77.33;;;;;0.43;100.00;98441.94;6278860;20;3685033;-43
2021/12/05 16:31:53;;;;;;;;;157.50;117.00;;;;;0.41;100.00;98440.28;6281483;20;4498141;-42
2021/12/05 16:34:36;;;;;;;;;111.00;84.67;;;;;0.43;100.00;98441.09;6279393;20;3682690;-41
2021/12/05 16:37:09;;;;;;;;;98.33;70.00;;;;;0.44;100.00;98454.22;6275364;20;3654499;-42
2021/12/05 16:39:49;;;;;;;;;100.33;71.67;;;;;0.51;100.00;98464.56;6309688;20;3677320;-42
2021/12/05 16:42:23;;;;;;;;;77.50;64.00;;;;;0.65;100.00;98457.75;6275487;20;2500282;-45
2021/12/05 16:45:02;;;;;;;;;99.33;72.33;;;;;0.86;100.00;98460.44;6282196;20;3672203;-43
2021/12/05 16:47:32;;;;;;;;;93.33;63.33;;;;;0.65;100.00;98462.19;6281345;20;3652304;-41